createdAt,value
2023-01-01T00:00:32.553Z,62.10
2023-01-01T00:03:02.004Z,62.90
2023-01-01T00:05:31.283Z,64.12
2023-01-01T00:08:04.649Z,64.03
2023-01-01T00:10:31.926Z,64.14
2023-01-01T00:13:01.626Z,64.56
2023-01-01T00:15:31.117Z,64.36
2023-01-01T00:18:00.536Z,64.71
2023-01-01T00:20:34.923Z,63.53
2023-01-01T00:23:01.198Z,63.45
2023-01-01T00:25:32.860Z,62.62
2023-01-01T00:28:03.108Z,63.19
2023-01-01T00:30:32.555Z,63.25
2023-01-01T00:33:01.973Z,63.02
2023-01-01T00:35:31.575Z,62.95
2023-01-01T00:38:01.174Z,62.86
2023-01-01T00:40:30.807Z,62.99
2023-01-01T00:43:00.007Z,63.21
2023-01-01T00:45:29.546Z,63.52
2023-01-01T00:47:59.023Z,63.26
2023-01-01T00:50:28.656Z,62.09
2023-01-01T00:52:57.943Z,62.94
2023-01-01T00:55:27.469Z,63.45
2023-01-01T00:57:56.661Z,62.91
2023-01-01T01:00:26.106Z,62.68
2023-01-01T01:02:55.363Z,62.14
2023-01-01T01:05:24.781Z,62.22
2023-01-01T01:07:54.039Z,62.99
2023-01-01T01:10:23.452Z,63.56
2023-01-01T01:12:53.278Z,63.92
2023-01-01T01:15:23.219Z,63.85
2023-01-01T01:17:52.759Z,64.18
2023-01-01T01:20:22.201Z,63.36
2023-01-01T01:22:51.960Z,63.62
2023-01-01T01:25:21.281Z,65.20
2023-01-01T01:27:50.950Z,65.28
2023-01-01T01:30:20.210Z,64.81
2023-01-01T01:32:50.012Z,65.39
2023-01-01T01:35:19.209Z,64.87
2023-01-01T01:37:48.689Z,65.00
2023-01-01T01:40:18.297Z,64.37
2023-01-01T01:42:49.607Z,64.07
2023-01-01T01:45:19.443Z,64.85
2023-01-01T01:47:58.160Z,64.61
2023-01-01T01:50:29.923Z,64.88
2023-01-01T01:53:05.183Z,65.58
2023-01-01T01:55:36.521Z,65.28
2023-01-01T01:58:06.821Z,65.10
2023-01-01T02:00:36.093Z,64.43
2023-01-01T02:03:10.947Z,64.88
2023-01-01T02:05:41.192Z,64.20
2023-01-01T02:08:12.420Z,65.15
2023-01-01T02:10:42.045Z,65.01
2023-01-01T02:13:11.892Z,65.46
2023-01-01T02:15:47.634Z,63.62
2023-01-01T02:18:20.274Z,63.35
2023-01-01T02:20:49.684Z,63.35
2023-01-01T02:23:55.542Z,62.87
2023-01-01T02:26:35.046Z,63.08
2023-01-01T02:29:19.293Z,61.87
2023-01-01T02:31:54.444Z,61.02
2023-01-01T02:34:26.633Z,61.26
2023-01-01T02:36:56.775Z,60.91
2023-01-01T02:39:28.570Z,60.76
2023-01-01T02:41:59.723Z,61.47
2023-01-01T02:44:31.800Z,61.69
2023-01-01T02:47:10.128Z,62.75
2023-01-01T02:49:42.598Z,61.20
2023-01-01T02:52:15.858Z,61.48
2023-01-01T02:55:01.190Z,61.74
2023-01-01T02:57:36.629Z,61.64
2023-01-01T03:00:21.727Z,61.60
2023-01-01T03:03:09.547Z,61.60
2023-01-01T03:06:23.584Z,62.13
2023-01-01T03:09:13.619Z,63.26
2023-01-01T03:12:01.386Z,62.90
2023-01-01T03:14:50.742Z,62.73
2023-01-01T03:17:37.149Z,62.06
2023-01-01T03:20:09.860Z,63.57
2023-01-01T03:25:16.606Z,62.24
2023-01-01T03:27:48.280Z,62.56
2023-01-01T03:30:21.503Z,62.82
2023-01-01T03:33:03.792Z,62.19
2023-01-01T03:35:41.688Z,62.54
2023-01-01T03:38:32.821Z,62.46
2023-01-01T03:41:04.977Z,63.55
2023-01-01T03:43:49.636Z,62.83
2023-01-01T03:46:21.493Z,63.26
2023-01-01T03:49:03.288Z,63.72
2023-01-01T03:51:49.769Z,63.72
2023-01-01T03:54:28.373Z,63.56
2023-01-01T03:57:00.361Z,63.45
2023-01-01T03:59:32.781Z,63.99
2023-01-01T04:02:03.641Z,63.00
2023-01-01T04:04:33.525Z,63.13
2023-01-01T04:07:14.747Z,64.01
2023-01-01T04:09:35.038Z,63.89
2023-01-01T04:12:05.360Z,63.29
2023-01-01T04:14:37.188Z,63.07
2023-01-01T04:17:07.900Z,62.61
2023-01-01T04:19:37.409Z,62.83
2023-01-01T04:22:07.046Z,62.49
2023-01-01T04:24:36.514Z,63.09
2023-01-01T04:27:05.742Z,63.21
2023-01-01T04:29:36.384Z,64.66
2023-01-01T04:32:05.972Z,67.59
2023-01-01T04:34:35.164Z,68.68
2023-01-01T04:37:09.676Z,68.57
2023-01-01T04:39:35.482Z,68.64
2023-01-01T04:42:04.751Z,68.52
2023-01-01T04:44:34.144Z,68.73
2023-01-01T04:47:03.332Z,69.80
2023-01-01T04:49:32.623Z,70.36
2023-01-01T04:52:01.809Z,69.57
2023-01-01T04:54:31.639Z,68.52
2023-01-01T04:57:00.826Z,68.39
2023-01-01T04:59:31.827Z,67.98
2023-01-01T05:02:01.237Z,66.51
2023-01-01T05:04:30.990Z,64.40
2023-01-01T05:07:00.192Z,65.50
2023-01-01T05:09:29.606Z,64.01
2023-01-01T05:11:59.989Z,63.66
2023-01-01T05:14:29.524Z,63.38
2023-01-01T05:16:58.729Z,63.25
2023-01-01T05:19:28.179Z,63.16
2023-01-01T05:21:57.689Z,61.93
2023-01-01T05:24:27.222Z,61.12
2023-01-01T05:26:56.761Z,62.01
2023-01-01T05:29:26.224Z,63.10
2023-01-01T05:31:55.823Z,64.18
2023-01-01T05:34:25.604Z,66.00
2023-01-01T05:36:54.779Z,66.23
2023-01-01T05:39:24.261Z,66.93
2023-01-01T05:41:53.456Z,67.52
2023-01-01T05:44:22.936Z,67.71
2023-01-01T05:46:52.159Z,67.22
2023-01-01T05:49:21.359Z,65.89
2023-01-01T05:51:50.589Z,65.57
2023-01-01T05:54:19.878Z,65.24
2023-01-01T05:56:49.110Z,65.18
2023-01-01T05:59:18.389Z,64.52
2023-01-01T06:01:47.691Z,65.24
2023-01-01T06:04:17.470Z,65.63
2023-01-01T06:06:46.874Z,65.45
2023-01-01T06:09:16.391Z,63.59
2023-01-01T06:11:45.710Z,63.58
2023-01-01T06:14:14.907Z,63.45
2023-01-01T06:16:44.302Z,63.11
2023-01-01T06:19:13.535Z,62.30
2023-01-01T06:21:42.788Z,63.75
2023-01-01T06:24:12.058Z,63.00
2023-01-01T06:26:41.507Z,62.16
2023-01-01T06:29:10.803Z,63.38
2023-01-01T06:31:40.978Z,63.04
2023-01-01T06:34:10.714Z,64.23
2023-01-01T06:36:40.536Z,65.18
2023-01-01T06:39:09.785Z,65.84
2023-01-01T06:41:39.169Z,65.19
2023-01-01T06:44:08.355Z,66.71
2023-01-01T06:46:38.108Z,67.48
2023-01-01T06:49:09.988Z,68.65
2023-01-01T06:51:41.504Z,68.53
2023-01-01T06:54:11.629Z,69.78
2023-01-01T06:56:41.113Z,70.62
2023-01-01T06:59:10.316Z,73.45
2023-01-01T07:01:44.305Z,72.40
2023-01-01T07:04:16.502Z,72.05
2023-01-01T07:06:45.821Z,72.27
2023-01-01T07:09:15.046Z,72.13
2023-01-01T07:11:44.585Z,71.72
2023-01-01T07:14:14.059Z,71.15
2023-01-01T07:16:44.006Z,71.67
2023-01-01T07:19:13.577Z,71.31
2023-01-01T07:21:45.127Z,71.65
2023-01-01T07:24:16.072Z,72.19
2023-01-01T07:26:46.520Z,71.98
2023-01-01T07:29:16.006Z,72.07
2023-01-01T07:31:45.731Z,72.19
2023-01-01T07:34:19.027Z,72.59
2023-01-01T07:36:48.524Z,72.30
2023-01-01T07:39:17.985Z,72.23
2023-01-01T07:41:47.588Z,72.26
2023-01-01T07:44:16.759Z,72.15
2023-01-01T07:46:46.082Z,72.91
2023-01-01T07:49:15.482Z,72.41
2023-01-01T07:51:45.007Z,73.19
2023-01-01T07:54:14.222Z,73.48
2023-01-01T07:56:43.959Z,73.47
2023-01-01T07:59:18.546Z,74.03
2023-01-01T08:01:44.826Z,73.90
2023-01-01T08:04:14.115Z,74.48
2023-01-01T08:06:43.330Z,74.42
2023-01-01T08:09:12.675Z,74.25
2023-01-01T08:11:42.263Z,74.87
2023-01-01T08:14:11.633Z,74.47
2023-01-01T08:16:40.982Z,74.31
2023-01-01T08:19:10.444Z,74.76
2023-01-01T08:21:39.632Z,75.30
2023-01-01T08:24:08.946Z,75.60
2023-01-01T08:26:39.692Z,75.68
2023-01-01T08:29:09.271Z,75.94
2023-01-01T08:31:39.010Z,76.25
2023-01-01T08:34:08.501Z,75.96
2023-01-01T08:36:40.647Z,75.75
2023-01-01T08:39:10.915Z,75.65
2023-01-01T08:41:40.447Z,75.45
2023-01-01T08:44:09.672Z,75.75
2023-01-01T08:46:39.552Z,75.52
2023-01-01T08:49:08.788Z,75.93
2023-01-01T08:51:38.015Z,75.37
2023-01-01T08:54:08.440Z,75.28
2023-01-01T08:56:38.328Z,75.67
2023-01-01T08:59:07.552Z,76.28
2023-01-01T09:01:37.045Z,76.51
2023-01-01T09:04:12.015Z,76.48
2023-01-01T09:06:38.884Z,76.53
2023-01-01T09:09:08.109Z,76.74
2023-01-01T09:11:38.133Z,76.69
2023-01-01T09:14:07.400Z,76.73
2023-01-01T09:16:43.723Z,77.27
2023-01-01T09:19:07.930Z,77.83
2023-01-01T09:21:38.861Z,78.12
2023-01-01T09:24:08.897Z,78.55
2023-01-01T09:26:38.647Z,78.90
2023-01-01T09:29:07.858Z,79.08
2023-01-01T09:31:37.597Z,79.14
2023-01-01T09:34:06.909Z,80.35
2023-01-01T09:36:36.769Z,81.16
2023-01-01T09:39:06.628Z,81.71
2023-01-01T09:41:51.107Z,80.91
2023-01-01T09:44:43.201Z,80.65
2023-01-01T09:47:34.094Z,82.65
2023-01-01T09:50:09.284Z,82.94
2023-01-01T09:52:44.870Z,83.44
2023-01-01T09:55:24.535Z,83.17
2023-01-01T09:57:54.967Z,83.74
2023-01-01T10:00:24.494Z,82.82
2023-01-01T10:03:15.595Z,82.46
2023-01-01T10:05:53.570Z,82.24
2023-01-01T10:08:42.448Z,82.30
2023-01-01T10:11:14.814Z,82.07
2023-01-01T10:13:45.545Z,81.87
2023-01-01T10:16:32.869Z,81.93
2023-01-01T10:19:29.926Z,81.24
2023-01-01T10:22:02.299Z,80.58
2023-01-01T10:24:40.732Z,80.29
2023-01-01T10:27:13.096Z,80.33
2023-01-01T10:29:47.433Z,77.86
2023-01-01T10:32:21.952Z,77.83
2023-01-01T10:34:52.062Z,78.88
2023-01-01T10:37:21.497Z,78.61
2023-01-01T10:39:51.669Z,78.41
2023-01-01T10:42:20.873Z,78.99
2023-01-01T10:44:51.737Z,80.02
2023-01-01T10:47:29.815Z,80.24
2023-01-01T10:50:01.575Z,80.78
2023-01-01T10:52:40.835Z,81.13
2023-01-01T10:55:26.655Z,81.29
2023-01-01T10:57:55.869Z,81.33
2023-01-01T11:00:28.519Z,81.05
2023-01-01T11:03:12.777Z,81.14
2023-01-01T11:05:43.968Z,81.63
2023-01-01T11:08:19.215Z,81.71
2023-01-01T11:10:53.121Z,81.94
2023-01-01T11:13:23.168Z,82.55
2023-01-01T11:15:52.630Z,82.58
2023-01-01T11:18:31.732Z,82.61
2023-01-01T11:21:01.153Z,82.73
2023-01-01T11:23:33.959Z,82.11
2023-01-01T11:26:15.475Z,82.46
2023-01-01T11:28:46.887Z,82.08
2023-01-01T11:31:18.400Z,81.86
2023-01-01T11:33:55.103Z,82.06
2023-01-01T11:36:35.589Z,81.18
2023-01-01T11:39:13.736Z,81.43
2023-01-01T11:41:45.887Z,80.63
2023-01-01T11:44:18.844Z,80.66
2023-01-01T11:46:48.475Z,80.19
2023-01-01T11:49:20.851Z,79.90
2023-01-01T11:51:50.157Z,78.96
2023-01-01T11:54:28.244Z,78.29
2023-01-01T11:57:03.601Z,77.52
2023-01-01T11:59:39.198Z,77.08
2023-01-01T12:02:11.906Z,75.78
2023-01-01T12:04:47.028Z,76.18
2023-01-01T12:07:25.181Z,75.64
2023-01-01T12:10:01.405Z,75.05
2023-01-01T12:12:48.321Z,73.99
2023-01-01T12:15:23.747Z,73.23
2023-01-01T12:18:11.334Z,73.67
2023-01-01T12:20:46.601Z,73.59
2023-01-01T12:23:16.795Z,72.51
2023-01-01T12:25:49.562Z,72.73
2023-01-01T12:28:37.113Z,72.50
2023-01-01T12:31:15.426Z,72.76
2023-01-01T12:34:00.568Z,73.22
2023-01-01T12:36:53.219Z,71.73
2023-01-01T12:39:45.370Z,72.39
2023-01-01T12:42:29.917Z,72.41
2023-01-01T12:45:08.065Z,72.41
2023-01-01T12:48:01.280Z,72.74
2023-01-01T12:50:53.584Z,72.40
2023-01-01T12:53:45.043Z,71.14
2023-01-01T12:56:25.649Z,71.81
2023-01-01T12:59:06.813Z,71.98
2023-01-01T13:01:37.987Z,72.92
2023-01-01T13:04:10.474Z,72.89
2023-01-01T13:06:42.787Z,73.20
2023-01-01T13:09:17.785Z,73.27
2023-01-01T13:11:50.196Z,73.40
2023-01-01T13:14:19.475Z,73.69
2023-01-01T13:16:58.701Z,73.16
2023-01-01T13:19:37.778Z,73.15
2023-01-01T13:22:28.020Z,74.60
2023-01-01T13:25:09.587Z,73.61
2023-01-01T13:28:00.686Z,74.42
2023-01-01T13:30:42.659Z,75.18
2023-01-01T13:33:25.896Z,74.57
2023-01-01T13:36:20.737Z,73.81
2023-01-01T13:38:57.030Z,74.63
2023-01-01T13:41:31.976Z,74.07
2023-01-01T13:44:04.379Z,74.77
2023-01-01T13:46:52.513Z,74.14
2023-01-01T13:49:46.222Z,74.24
2023-01-01T13:52:30.753Z,74.48
2023-01-01T13:55:18.216Z,74.32
2023-01-01T13:58:11.767Z,74.96
2023-01-01T14:01:15.209Z,74.77
2023-01-01T14:03:47.242Z,74.97
2023-01-01T14:06:34.918Z,75.08
2023-01-01T14:09:09.853Z,75.05
2023-01-01T14:11:39.137Z,74.98
2023-01-01T14:14:28.417Z,74.15
2023-01-01T14:17:00.302Z,74.47
2023-01-01T14:19:30.227Z,74.78
2023-01-01T14:22:00.028Z,74.89
2023-01-01T14:24:29.816Z,74.18
2023-01-01T14:26:59.857Z,74.69
2023-01-01T14:29:31.071Z,74.81
2023-01-01T14:32:02.451Z,75.05
2023-01-01T14:34:33.716Z,74.77
2023-01-01T14:37:05.463Z,75.04
2023-01-01T14:39:36.417Z,74.81
2023-01-01T14:42:11.997Z,74.77
2023-01-01T14:44:46.054Z,74.70
2023-01-01T14:47:33.458Z,75.00
2023-01-01T14:50:11.874Z,74.70
2023-01-01T14:52:41.994Z,74.66
2023-01-01T14:55:14.356Z,74.88
2023-01-01T14:57:47.670Z,74.94
2023-01-01T15:00:25.473Z,75.21
2023-01-01T15:02:55.207Z,75.70
2023-01-01T15:05:31.387Z,75.46
2023-01-01T15:08:00.227Z,75.69
2023-01-01T15:10:31.349Z,75.73
2023-01-01T15:13:01.029Z,75.94
2023-01-01T15:15:41.797Z,76.34
2023-01-01T15:18:35.898Z,76.48
2023-01-01T15:21:13.886Z,76.71
2023-01-01T15:23:57.455Z,76.87
2023-01-01T15:26:32.139Z,76.67
2023-01-01T15:29:02.325Z,77.06
2023-01-01T15:31:40.894Z,77.11
2023-01-01T15:34:34.467Z,77.38
2023-01-01T15:37:09.355Z,77.38
2023-01-01T15:39:53.323Z,77.48
2023-01-01T15:42:36.312Z,77.62
2023-01-01T15:45:15.129Z,77.91
2023-01-01T15:47:45.144Z,77.70
2023-01-01T15:50:23.553Z,77.33
2023-01-01T15:53:01.254Z,77.54
2023-01-01T15:55:34.657Z,77.64
2023-01-01T15:58:04.753Z,77.87
2023-01-01T16:00:36.868Z,77.55
2023-01-01T16:03:20.806Z,77.74
2023-01-01T16:05:52.541Z,77.47
2023-01-01T16:08:21.816Z,77.99
2023-01-01T16:10:51.927Z,77.72
2023-01-01T16:13:21.310Z,77.80
2023-01-01T16:15:56.985Z,78.56
2023-01-01T16:18:30.962Z,78.38
2023-01-01T16:21:00.945Z,78.17
2023-01-01T16:23:30.152Z,78.17
2023-01-01T16:25:59.399Z,78.65
2023-01-01T16:28:28.613Z,79.15
2023-01-01T16:30:59.195Z,79.63
2023-01-01T16:33:28.585Z,79.29
2023-01-01T16:35:58.057Z,79.38
2023-01-01T16:38:27.335Z,79.69
2023-01-01T16:40:56.758Z,80.07
2023-01-01T16:43:26.018Z,80.58
2023-01-01T16:45:56.033Z,81.62
2023-01-01T16:48:25.599Z,82.40
2023-01-01T16:50:55.189Z,83.08
2023-01-01T16:53:24.629Z,83.88
2023-01-01T16:55:54.817Z,84.62
2023-01-01T16:58:48.871Z,84.94
2023-01-01T17:01:00.609Z,85.45
2023-01-01T17:03:29.973Z,86.43
2023-01-01T17:05:59.380Z,86.67
2023-01-01T17:08:28.621Z,87.14
2023-01-01T17:11:12.242Z,87.41
2023-01-01T17:13:43.668Z,88.37
2023-01-01T17:16:19.447Z,88.82
2023-01-01T17:21:22.797Z,89.07
2023-01-01T17:23:52.290Z,89.97
2023-01-01T17:26:23.755Z,90.34
2023-01-01T17:29:00.255Z,90.68
2023-01-01T17:31:25.112Z,90.91
2023-01-01T17:33:55.722Z,90.80
2023-01-01T17:36:27.346Z,91.36
2023-01-01T17:38:57.569Z,91.56
2023-01-01T17:41:27.295Z,91.76
2023-01-01T17:43:57.533Z,92.16
2023-01-01T17:46:29.687Z,92.21
2023-01-01T17:49:01.010Z,92.54
2023-01-01T17:51:30.543Z,92.32
2023-01-01T17:54:01.769Z,92.60
2023-01-01T17:56:31.290Z,93.36
2023-01-01T17:59:01.047Z,93.26
2023-01-01T18:01:33.272Z,93.39
2023-01-01T18:04:09.985Z,93.58
2023-01-01T18:06:42.873Z,93.74
2023-01-01T18:09:14.291Z,93.97
2023-01-01T18:11:44.213Z,94.20
2023-01-01T18:14:17.247Z,94.27
2023-01-01T18:16:45.911Z,94.25
2023-01-01T18:19:15.163Z,94.52
2023-01-01T18:21:44.780Z,94.67
2023-01-01T18:24:15.692Z,94.90
2023-01-01T18:26:45.333Z,94.77
2023-01-01T18:29:14.574Z,94.96
2023-01-01T18:31:45.737Z,95.25
2023-01-01T18:34:15.334Z,95.13
2023-01-01T18:36:46.245Z,95.34
2023-01-01T18:39:19.002Z,95.59
2023-01-01T18:41:54.092Z,95.80
2023-01-01T18:44:25.755Z,95.83
2023-01-01T18:47:00.364Z,95.98
2023-01-01T18:49:30.851Z,96.11
2023-01-01T18:52:15.969Z,96.26
2023-01-01T18:54:46.234Z,96.24
2023-01-01T18:57:28.617Z,96.30
2023-01-01T18:59:51.986Z,96.27
2023-01-01T19:02:40.153Z,96.38
2023-01-01T19:05:19.087Z,96.44
2023-01-01T19:08:09.820Z,96.53
2023-01-01T19:10:44.986Z,96.65
2023-01-01T19:13:20.513Z,96.64
2023-01-01T19:15:53.425Z,96.61
2023-01-01T19:18:25.684Z,96.80
2023-01-01T19:21:10.202Z,96.72
2023-01-01T19:23:48.853Z,96.73
2023-01-01T19:26:29.436Z,96.99
2023-01-01T19:29:01.940Z,97.08
2023-01-01T19:31:31.518Z,97.23
2023-01-01T19:34:01.323Z,97.29
2023-01-01T19:36:30.666Z,97.56
2023-01-01T19:39:00.452Z,97.74
2023-01-01T19:41:29.855Z,97.82
2023-01-01T19:43:59.475Z,97.80
2023-01-01T19:46:28.877Z,97.83
2023-01-01T19:48:59.081Z,97.90
2023-01-01T19:51:28.840Z,97.98
2023-01-01T19:53:58.486Z,97.61
2023-01-01T19:56:28.159Z,97.63
2023-01-01T19:58:57.915Z,97.19
2023-01-01T20:01:27.431Z,97.01
2023-01-01T20:03:58.978Z,97.10
2023-01-01T20:06:30.354Z,97.26
2023-01-01T20:08:59.999Z,96.68
2023-01-01T20:11:30.970Z,97.04
2023-01-01T20:14:00.369Z,97.15
2023-01-01T20:16:29.640Z,97.08
2023-01-01T20:18:59.570Z,97.13
2023-01-01T20:21:46.739Z,97.36
2023-01-01T20:24:17.813Z,97.47
2023-01-01T20:26:47.171Z,97.65
2023-01-01T20:29:22.602Z,97.71
2023-01-01T20:31:53.914Z,97.67
2023-01-01T20:34:24.037Z,97.77
2023-01-01T20:37:11.266Z,97.84
2023-01-01T20:39:41.112Z,97.50
2023-01-01T20:42:10.292Z,97.67
2023-01-01T20:44:41.876Z,97.70
2023-01-01T20:47:14.425Z,97.67
2023-01-01T20:49:42.990Z,97.86
2023-01-01T20:52:12.393Z,97.76
2023-01-01T20:54:41.817Z,97.89
2023-01-01T20:57:11.060Z,97.83
2023-01-01T20:59:40.386Z,97.85
2023-01-01T21:02:11.918Z,98.03
2023-01-01T21:04:41.698Z,98.04
2023-01-01T21:07:12.244Z,98.13
2023-01-01T21:09:42.581Z,98.18
2023-01-01T21:12:12.135Z,98.22
2023-01-01T21:14:43.274Z,98.27
2023-01-01T21:17:23.440Z,98.32
2023-01-01T21:19:55.863Z,98.51
2023-01-01T21:22:25.355Z,98.59
2023-01-01T21:25:05.374Z,98.61
2023-01-01T21:27:34.479Z,98.67
2023-01-01T21:30:06.304Z,98.75
2023-01-01T21:32:40.614Z,98.74
2023-01-01T21:35:25.029Z,98.88
2023-01-01T21:37:56.085Z,98.67
2023-01-01T21:40:43.985Z,98.71
2023-01-01T21:43:22.037Z,98.74
2023-01-01T21:45:51.684Z,98.87
2023-01-01T21:48:30.096Z,98.98
2023-01-01T21:51:00.840Z,98.92
2023-01-01T21:53:33.187Z,98.89
2023-01-01T21:56:05.744Z,98.87
2023-01-01T21:58:53.077Z,98.82
2023-01-01T22:01:27.315Z,98.77
2023-01-01T22:04:11.724Z,98.63
2023-01-01T22:06:46.154Z,98.51
2023-01-01T22:09:21.320Z,98.35
2023-01-01T22:11:54.482Z,98.25
2023-01-01T22:14:26.703Z,97.97
2023-01-01T22:16:57.042Z,97.88
2023-01-01T22:19:28.745Z,97.83
2023-01-01T22:21:58.039Z,97.63
2023-01-01T22:24:35.590Z,97.51
2023-01-01T22:27:29.642Z,97.51
2023-01-01T22:30:11.044Z,97.06
2023-01-01T22:32:40.929Z,97.31
2023-01-01T22:35:19.317Z,97.16
2023-01-01T22:37:55.651Z,96.80
2023-01-01T22:40:32.829Z,96.86
2023-01-01T22:43:08.080Z,96.55
2023-01-01T22:45:39.698Z,96.43
2023-01-01T22:48:20.970Z,96.26
2023-01-01T22:50:51.105Z,96.30
2023-01-01T22:53:20.366Z,96.40
2023-01-01T22:55:49.933Z,96.39
2023-01-01T22:58:19.123Z,96.26
2023-01-01T23:00:48.844Z,96.20
2023-01-01T23:03:18.440Z,96.10
2023-01-01T23:05:47.834Z,95.94
2023-01-01T23:08:17.131Z,96.05
2023-01-01T23:10:46.547Z,95.94
2023-01-01T23:13:34.149Z,96.20
2023-01-01T23:16:03.480Z,96.06
2023-01-01T23:18:35.396Z,95.69
2023-01-01T23:21:08.058Z,95.80
2023-01-01T23:23:36.978Z,95.67
2023-01-01T23:26:08.364Z,95.45
2023-01-01T23:28:38.401Z,95.47
2023-01-01T23:31:09.803Z,95.67
2023-01-01T23:33:39.658Z,95.71
2023-01-01T23:36:10.369Z,95.75
2023-01-01T23:38:39.764Z,95.52
2023-01-01T23:41:09.019Z,95.26
2023-01-01T23:43:43.060Z,95.01
2023-01-01T23:46:09.958Z,95.24
2023-01-01T23:48:39.514Z,94.83
2023-01-01T23:51:09.551Z,94.54
2023-01-01T23:53:39.119Z,94.75
2023-01-01T23:56:08.942Z,94.58
2023-01-01T23:58:38.349Z,94.18
